createdAt,value
2018-12-11T00:01:12.540Z,55.63
2018-12-11T00:03:40.837Z,55.71
2018-12-11T00:06:09.076Z,54.80
2018-12-11T00:08:37.232Z,54.91
2018-12-11T00:11:05.560Z,55.30
2018-12-11T00:13:33.712Z,54.95
2018-12-11T00:16:01.856Z,54.96
2018-12-11T00:18:30.016Z,55.54
2018-12-11T00:20:58.269Z,55.12
2018-12-11T00:23:26.536Z,55.00
2018-12-11T00:25:54.704Z,55.54
2018-12-11T00:28:22.993Z,55.12
2018-12-11T00:30:51.374Z,55.06
2018-12-11T00:33:19.549Z,54.89
2018-12-11T00:35:47.701Z,55.06
2018-12-11T00:38:15.893Z,54.72
2018-12-11T00:40:44.052Z,55.07
2018-12-11T00:43:12.238Z,55.23
2018-12-11T00:45:40.408Z,54.81
2018-12-11T00:48:08.592Z,55.20
2018-12-11T00:50:36.872Z,54.90
2018-12-11T00:53:05.151Z,55.14
2018-12-11T00:55:33.424Z,55.31
2018-12-11T00:58:01.711Z,55.28
2018-12-11T01:00:29.992Z,54.87
2018-12-11T01:02:58.245Z,55.36
2018-12-11T01:05:26.640Z,55.01
2018-12-11T01:07:54.804Z,55.02
2018-12-11T01:10:23.080Z,55.65
2018-12-11T01:12:51.256Z,55.53
2018-12-11T01:15:19.428Z,55.34
2018-12-11T01:17:47.606Z,55.31
2018-12-11T01:20:15.899Z,55.24
2018-12-11T01:22:44.152Z,55.85
2018-12-11T01:25:12.446Z,55.79
2018-12-11T01:27:40.603Z,55.54
2018-12-11T01:30:09.013Z,55.87
2018-12-11T01:32:37.164Z,56.07
2018-12-11T01:35:05.452Z,55.51
2018-12-11T01:37:33.693Z,55.44
2018-12-11T01:40:01.867Z,55.77
2018-12-11T01:42:30.104Z,55.82
2018-12-11T01:44:58.263Z,55.42
2018-12-11T01:47:26.500Z,55.82
2018-12-11T01:49:54.708Z,55.60
2018-12-11T01:52:23.084Z,55.45
2018-12-11T01:54:51.313Z,55.36
2018-12-11T01:57:19.632Z,55.52
2018-12-11T01:59:47.908Z,55.68
2018-12-11T02:02:16.300Z,55.52
2018-12-11T02:04:44.468Z,55.60
2018-12-11T02:07:13.557Z,55.15
2018-12-11T02:09:41.810Z,54.97
2018-12-11T02:12:09.957Z,55.61
2018-12-11T02:14:38.252Z,55.18
2018-12-11T02:17:06.576Z,55.10
2018-12-11T02:19:34.867Z,55.48
2018-12-11T02:22:03.028Z,55.44
2018-12-11T02:24:31.304Z,55.07
2018-12-11T02:26:59.596Z,55.25
2018-12-11T02:29:27.964Z,55.48
2018-12-11T02:31:56.133Z,54.88
2018-12-11T02:34:24.305Z,54.97
2018-12-11T02:36:52.488Z,55.42
2018-12-11T02:39:20.692Z,55.30
2018-12-11T02:41:48.944Z,54.69
2018-12-11T02:44:17.139Z,55.11
2018-12-11T02:46:45.292Z,55.21
2018-12-11T02:49:13.458Z,54.92
2018-12-11T02:51:41.749Z,55.27
2018-12-11T02:54:10.013Z,55.34
2018-12-11T02:56:38.188Z,55.13
2018-12-11T02:59:06.342Z,55.11
2018-12-11T03:01:34.662Z,55.19
2018-12-11T03:04:03.025Z,55.48
2018-12-11T03:06:31.416Z,54.87
2018-12-11T03:08:59.608Z,54.93
2018-12-11T03:11:27.777Z,55.13
2018-12-11T03:13:55.929Z,55.13
2018-12-11T03:16:24.244Z,55.38
2018-12-11T03:18:52.396Z,55.52
2018-12-11T03:21:20.593Z,55.37
2018-12-11T03:23:48.746Z,55.12
2018-12-11T03:26:16.988Z,55.11
2018-12-11T03:28:45.197Z,55.24
2018-12-11T03:31:13.812Z,55.61
2018-12-11T03:33:42.084Z,55.53
2018-12-11T03:36:10.354Z,55.12
2018-12-11T03:38:38.621Z,55.32
2018-12-11T03:41:06.995Z,55.43
2018-12-11T03:43:35.284Z,55.65
2018-12-11T03:46:03.566Z,55.13
2018-12-11T03:48:31.727Z,55.64
2018-12-11T03:51:00.006Z,55.77
2018-12-11T03:53:28.234Z,55.40
2018-12-11T03:55:56.449Z,55.92
2018-12-11T03:58:24.632Z,55.81
2018-12-11T04:00:52.897Z,55.96
2018-12-11T04:03:21.205Z,55.57
2018-12-11T04:05:49.361Z,55.89
2018-12-11T04:08:17.648Z,55.57
2018-12-11T04:10:45.908Z,55.46
2018-12-11T04:13:14.106Z,55.91
2018-12-11T04:15:42.461Z,55.56
2018-12-11T04:18:10.615Z,55.62
2018-12-11T04:20:38.758Z,55.66
2018-12-11T04:23:07.020Z,55.98
2018-12-11T04:25:35.265Z,56.21
2018-12-11T04:28:03.452Z,55.77
2018-12-11T04:30:31.726Z,55.68
2018-12-11T04:33:00.017Z,56.11
2018-12-11T04:35:28.168Z,56.15
2018-12-11T04:37:56.348Z,55.98
2018-12-11T04:40:24.524Z,55.99
2018-12-11T04:42:52.796Z,55.66
2018-12-11T04:45:20.984Z,56.13
2018-12-11T04:47:49.146Z,55.71
2018-12-11T04:50:17.452Z,55.96
2018-12-11T04:52:45.685Z,56.02
2018-12-11T04:55:14.108Z,56.12
2018-12-11T04:57:42.255Z,55.78
2018-12-11T05:00:10.557Z,55.66
2018-12-11T05:02:38.712Z,55.64
2018-12-11T05:05:07.512Z,55.86
2018-12-11T05:07:35.655Z,56.13
2018-12-11T05:10:04.901Z,55.83
2018-12-11T05:12:33.264Z,55.70
2018-12-11T05:15:01.428Z,55.53
2018-12-11T05:17:29.601Z,55.58
2018-12-11T05:19:57.781Z,56.06
2018-12-11T05:22:25.969Z,55.56
2018-12-11T05:24:54.122Z,55.78
2018-12-11T05:27:22.316Z,55.90
2018-12-11T05:29:50.480Z,56.37
2018-12-11T05:32:18.644Z,56.11
2018-12-11T05:34:46.940Z,56.71
2018-12-11T05:37:15.335Z,56.83
2018-12-11T05:39:43.602Z,56.37
2018-12-11T05:42:11.760Z,56.64
2018-12-11T05:44:39.908Z,56.42
2018-12-11T05:47:08.048Z,56.67
2018-12-11T05:49:36.409Z,56.79
2018-12-11T05:52:04.780Z,56.82
2018-12-11T05:54:33.019Z,56.78
2018-12-11T05:57:01.236Z,56.68
2018-12-11T05:59:29.416Z,56.65
2018-12-11T06:01:57.664Z,56.46
2018-12-11T06:04:25.852Z,56.68
2018-12-11T06:06:54.028Z,56.92
2018-12-11T06:09:22.193Z,56.61
2018-12-11T06:11:50.343Z,56.50
2018-12-11T06:14:18.477Z,56.95
2018-12-11T06:16:46.800Z,56.54
2018-12-11T06:19:15.486Z,56.65
2018-12-11T06:21:43.636Z,56.71
2018-12-11T06:24:11.852Z,56.91
2018-12-11T06:26:40.265Z,56.90
2018-12-11T06:29:08.532Z,57.28
2018-12-11T06:31:36.731Z,56.98
2018-12-11T06:34:04.964Z,57.56
2018-12-11T06:36:33.372Z,58.14
2018-12-11T06:39:01.648Z,57.97
2018-12-11T06:41:29.980Z,57.14
2018-12-11T06:43:58.176Z,57.58
2018-12-11T06:46:26.584Z,57.56
2018-12-11T06:48:54.729Z,57.46
2018-12-11T06:51:23.039Z,57.75
2018-12-11T06:53:51.187Z,57.84
2018-12-11T06:56:19.364Z,57.84
2018-12-11T06:58:47.544Z,57.31
2018-12-11T07:01:15.809Z,57.44
2018-12-11T07:03:44.116Z,57.87
2018-12-11T07:06:12.264Z,57.92
2018-12-11T07:08:40.779Z,57.91
2018-12-11T07:11:09.040Z,57.70
2018-12-11T07:13:37.332Z,58.06
2018-12-11T07:16:05.696Z,57.66
2018-12-11T07:18:33.984Z,57.68
2018-12-11T07:21:02.128Z,58.09
2018-12-11T07:23:30.427Z,58.49
2018-12-11T07:25:58.680Z,57.76
2018-12-11T07:28:26.832Z,57.60
2018-12-11T07:30:54.972Z,57.45
2018-12-11T07:33:23.237Z,58.07
2018-12-11T07:35:51.388Z,57.98
2018-12-11T07:38:19.584Z,58.32
2018-12-11T07:40:47.756Z,57.93
2018-12-11T07:43:16.020Z,58.40
2018-12-11T07:45:44.191Z,57.95
2018-12-11T07:48:12.350Z,58.31
2018-12-11T07:50:40.636Z,57.86
2018-12-11T07:53:08.812Z,57.87
2018-12-11T07:55:37.116Z,57.61
2018-12-11T07:58:05.364Z,57.83
2018-12-11T08:00:33.560Z,58.11
2018-12-11T08:03:01.757Z,57.57
2018-12-11T08:05:30.004Z,57.93
2018-12-11T08:07:58.292Z,57.84
2018-12-11T08:10:26.443Z,57.12
2018-12-11T08:12:54.620Z,57.30
2018-12-11T08:15:22.817Z,57.65
2018-12-11T08:17:50.960Z,56.92
2018-12-11T08:20:19.276Z,56.51
2018-12-11T08:22:47.541Z,55.98
2018-12-11T08:25:15.713Z,56.26
2018-12-11T08:27:43.856Z,55.99
2018-12-11T08:30:12.062Z,56.18
2018-12-11T08:32:40.228Z,56.22
2018-12-11T08:35:08.630Z,56.12
2018-12-11T08:37:36.781Z,55.75
2018-12-11T08:40:05.403Z,56.08
2018-12-11T08:42:33.640Z,55.37
2018-12-11T08:45:01.845Z,55.70
2018-12-11T08:47:30.084Z,55.68
2018-12-11T08:49:58.284Z,55.98
2018-12-11T08:52:26.464Z,56.99
2018-12-11T08:54:54.653Z,56.69
2018-12-11T08:57:22.912Z,56.78
2018-12-11T08:59:51.080Z,57.00
2018-12-11T09:02:19.321Z,56.92
2018-12-11T09:04:47.522Z,57.20
2018-12-11T09:07:15.677Z,56.62
2018-12-11T09:09:43.909Z,57.22
2018-12-11T09:12:12.176Z,56.20
2018-12-11T09:14:40.388Z,56.60
2018-12-11T09:17:10.171Z,55.92
2018-12-11T09:19:39.119Z,56.26
2018-12-11T09:22:07.330Z,56.46
2018-12-11T09:24:35.529Z,56.79
2018-12-11T09:27:03.805Z,57.31
2018-12-11T09:29:31.986Z,56.69
2018-12-11T09:32:00.348Z,57.13
2018-12-11T09:34:28.534Z,56.77
2018-12-11T09:36:56.749Z,56.44
2018-12-11T09:39:24.925Z,55.82
2018-12-11T09:41:53.230Z,55.82
2018-12-11T09:44:21.463Z,56.05
2018-12-11T09:46:49.633Z,55.70
2018-12-11T09:49:17.906Z,56.24
2018-12-11T09:51:46.078Z,56.14
2018-12-11T09:54:14.252Z,55.70
2018-12-11T09:56:42.553Z,55.80
2018-12-11T09:59:10.840Z,56.11
2018-12-11T10:01:39.055Z,55.74
2018-12-11T10:04:07.241Z,55.77
2018-12-11T10:06:35.629Z,55.42
2018-12-11T10:09:06.390Z,55.10
2018-12-11T10:11:34.580Z,54.94
2018-12-11T10:14:02.934Z,54.76
2018-12-11T10:16:31.097Z,54.61
2018-12-11T10:18:59.404Z,55.09
2018-12-11T10:21:27.573Z,55.05
2018-12-11T10:23:55.749Z,54.27
2018-12-11T10:26:24.013Z,54.70
2018-12-11T10:28:52.206Z,54.39
2018-12-11T10:31:20.565Z,54.35
2018-12-11T10:33:48.745Z,54.71
2018-12-11T10:36:17.095Z,54.74
2018-12-11T10:38:45.381Z,54.59
2018-12-11T10:41:13.631Z,54.54
2018-12-11T10:43:41.849Z,54.70
2018-12-11T10:46:10.016Z,54.28
2018-12-11T10:48:38.198Z,53.85
2018-12-11T10:51:06.563Z,53.31
2018-12-11T10:53:34.821Z,53.65
2018-12-11T10:56:03.021Z,53.36
2018-12-11T10:58:31.209Z,53.91
2018-12-11T11:01:04.594Z,54.05
2018-12-11T11:03:32.766Z,53.56
2018-12-11T11:06:00.933Z,54.09
2018-12-11T11:08:29.152Z,53.72
2018-12-11T11:10:57.362Z,54.10
2018-12-11T11:13:25.576Z,54.01
2018-12-11T11:15:53.832Z,53.66
2018-12-11T11:18:22.114Z,53.80
2018-12-11T11:20:50.279Z,53.89
2018-12-11T11:23:18.474Z,53.78
2018-12-11T11:25:46.648Z,53.97
2018-12-11T11:28:14.819Z,53.95
2018-12-11T11:30:43.015Z,53.99
2018-12-11T11:33:11.183Z,54.48
2018-12-11T11:35:39.373Z,54.33
2018-12-11T11:38:07.537Z,54.37
2018-12-11T11:40:35.727Z,54.43
2018-12-11T11:43:03.889Z,54.36
2018-12-11T11:45:32.161Z,53.73
2018-12-11T11:48:00.482Z,54.31
2018-12-11T11:50:28.872Z,53.77
2018-12-11T11:52:57.064Z,53.60
2018-12-11T11:55:25.285Z,53.97
2018-12-11T11:57:53.458Z,53.49
2018-12-11T12:00:21.735Z,53.26
2018-12-11T12:02:49.927Z,53.74
2018-12-11T12:05:18.110Z,53.70
2018-12-11T12:07:46.286Z,53.71
2018-12-11T12:10:14.480Z,52.89
2018-12-11T12:12:42.769Z,53.20
2018-12-11T12:15:11.053Z,53.19
2018-12-11T12:17:39.242Z,53.06
2018-12-11T12:20:10.021Z,52.56
2018-12-11T12:22:38.314Z,52.10
2018-12-11T12:25:07.110Z,52.50
2018-12-11T12:27:35.300Z,52.90
2018-12-11T12:30:03.699Z,52.41
2018-12-11T12:32:31.872Z,52.38
2018-12-11T12:35:00.152Z,52.19
2018-12-11T12:37:28.340Z,52.27
2018-12-11T12:39:56.535Z,52.01
2018-12-11T12:42:24.749Z,51.80
2018-12-11T12:44:52.939Z,51.20
2018-12-11T12:47:21.223Z,51.44
2018-12-11T12:49:50.753Z,51.09
2018-12-11T12:52:19.849Z,51.46
2018-12-11T12:54:48.052Z,51.13
2018-12-11T12:57:16.354Z,51.17
2018-12-11T12:59:44.609Z,50.81
2018-12-11T13:02:12.865Z,50.96
2018-12-11T13:04:41.141Z,51.12
2018-12-11T13:07:10.005Z,51.29
2018-12-11T13:09:38.179Z,50.93
2018-12-11T13:12:06.540Z,51.06
2018-12-11T13:14:34.821Z,50.97
2018-12-11T13:17:03.022Z,51.47
2018-12-11T13:19:31.205Z,51.22
2018-12-11T13:21:59.441Z,51.03
2018-12-11T13:24:27.626Z,51.11
2018-12-11T13:26:55.806Z,51.18
2018-12-11T13:29:24.045Z,52.00
2018-12-11T13:31:52.338Z,52.21
2018-12-11T13:34:21.177Z,51.85
2018-12-11T13:36:49.569Z,51.69
2018-12-11T13:39:17.849Z,52.51
2018-12-11T13:41:46.130Z,51.94
2018-12-11T13:44:14.471Z,51.46
2018-12-11T13:46:43.090Z,51.47
2018-12-11T13:49:11.362Z,52.15
2018-12-11T13:51:39.568Z,51.72
2018-12-11T13:54:07.776Z,52.23
2018-12-11T13:56:35.966Z,52.24
2018-12-11T13:59:04.549Z,52.14
2018-12-11T14:01:32.741Z,52.28
2018-12-11T14:04:01.017Z,52.37
2018-12-11T14:06:29.339Z,52.15
2018-12-11T14:08:57.556Z,51.63
2018-12-11T14:11:25.776Z,52.00
2018-12-11T14:13:53.966Z,51.88
2018-12-11T14:16:22.208Z,52.24
2018-12-11T14:18:50.397Z,51.61
2018-12-11T14:21:18.667Z,52.14
2018-12-11T14:23:46.869Z,51.70
2018-12-11T14:26:15.140Z,52.18
2018-12-11T14:28:43.435Z,51.92
2018-12-11T14:31:12.764Z,51.86
2018-12-11T14:33:41.053Z,51.82
2018-12-11T14:36:10.616Z,51.84
2018-12-11T14:38:38.813Z,51.90
2018-12-11T14:41:07.055Z,51.69
2018-12-11T14:43:35.339Z,51.53
2018-12-11T14:46:03.620Z,51.37
2018-12-11T14:48:31.867Z,50.95
2018-12-11T14:51:00.052Z,51.07
2018-12-11T14:53:28.349Z,51.77
2018-12-11T14:55:56.526Z,51.55
2018-12-11T14:58:24.777Z,51.77
2018-12-11T15:00:53.038Z,51.61
2018-12-11T15:03:21.287Z,52.28
2018-12-11T15:05:49.489Z,52.49
2018-12-11T15:08:17.771Z,52.01
2018-12-11T15:10:46.333Z,52.17
2018-12-11T15:13:14.789Z,52.60
2018-12-11T15:15:43.035Z,52.67
2018-12-11T15:18:11.370Z,52.35
2018-12-11T15:20:39.671Z,52.55
2018-12-11T15:23:07.861Z,52.53
2018-12-11T15:25:36.021Z,52.26
2018-12-11T15:28:04.517Z,52.60
2018-12-11T15:30:32.773Z,52.39
2018-12-11T15:33:01.043Z,52.31
2018-12-11T15:35:29.344Z,52.99
2018-12-11T15:37:57.534Z,52.84
2018-12-11T15:40:25.717Z,52.68
2018-12-11T15:42:54.140Z,52.49
2018-12-11T15:45:22.557Z,52.46
2018-12-11T15:47:50.941Z,52.83
2018-12-11T15:50:19.121Z,52.60
2018-12-11T15:52:47.427Z,52.99
2018-12-11T15:55:15.613Z,53.15
2018-12-11T15:57:43.816Z,53.26
2018-12-11T16:00:12.169Z,53.37
2018-12-11T16:02:40.452Z,53.08
2018-12-11T16:05:08.946Z,53.44
2018-12-11T16:07:37.127Z,53.02
2018-12-11T16:10:06.777Z,53.04
2018-12-11T16:12:34.953Z,53.42
2018-12-11T16:15:03.409Z,52.96
2018-12-11T16:17:31.677Z,53.60
2018-12-11T16:19:59.944Z,53.67
2018-12-11T16:22:28.244Z,53.32
2018-12-11T16:24:56.910Z,53.67
2018-12-11T16:27:25.422Z,53.65
2018-12-11T16:29:53.993Z,53.83
2018-12-11T16:32:22.189Z,53.86
2018-12-11T16:34:50.497Z,53.70
2018-12-11T16:37:18.982Z,53.73
2018-12-11T16:39:47.174Z,53.85
2018-12-11T16:42:15.531Z,53.86
2018-12-11T16:44:43.734Z,53.52
2018-12-11T16:47:11.985Z,53.61
2018-12-11T16:49:40.902Z,53.99
2018-12-11T16:52:09.080Z,53.37
2018-12-11T16:54:37.275Z,53.31
2018-12-11T16:57:05.561Z,53.25
2018-12-11T16:59:33.801Z,53.67
2018-12-11T17:02:02.378Z,53.53
2018-12-11T17:04:30.562Z,53.31
2018-12-11T17:06:58.755Z,53.24
2018-12-11T17:09:27.073Z,53.16
2018-12-11T17:11:55.253Z,52.92
2018-12-11T17:14:23.589Z,53.11
2018-12-11T17:16:51.857Z,53.47
2018-12-11T17:19:20.029Z,53.67
2018-12-11T17:21:48.224Z,53.04
2018-12-11T17:24:16.509Z,53.46
2018-12-11T17:26:47.859Z,53.10
2018-12-11T17:29:16.347Z,53.12
2018-12-11T17:31:44.558Z,53.13
2018-12-11T17:34:13.265Z,53.27
2018-12-11T17:36:41.601Z,52.99
2018-12-11T17:39:09.765Z,52.89
2018-12-11T17:41:37.917Z,53.06
2018-12-11T17:44:06.088Z,53.52
2018-12-11T17:46:34.261Z,52.85
2018-12-11T17:49:02.417Z,53.35
2018-12-11T17:51:30.661Z,52.79
2018-12-11T17:53:58.853Z,53.27
2018-12-11T17:56:27.018Z,53.23
2018-12-11T17:58:55.945Z,52.84
2018-12-11T18:01:26.213Z,52.97
2018-12-11T18:03:54.381Z,53.06
2018-12-11T18:06:22.524Z,52.61
2018-12-11T18:08:50.684Z,52.79
2018-12-11T18:11:18.824Z,52.52
2018-12-11T18:13:46.983Z,52.80
2018-12-11T18:16:15.136Z,52.58
2018-12-11T18:18:43.288Z,53.02
2018-12-11T18:21:11.608Z,52.60
2018-12-11T18:23:39.878Z,52.34
2018-12-11T18:26:08.131Z,52.43
2018-12-11T18:28:36.316Z,52.19
2018-12-11T18:31:04.580Z,52.13
2018-12-11T18:33:32.872Z,52.21
2018-12-11T18:36:01.096Z,52.22
2018-12-11T18:38:29.309Z,52.05
2018-12-11T18:40:57.584Z,52.33
2018-12-11T18:43:25.836Z,51.50
2018-12-11T18:45:53.981Z,51.47
2018-12-11T18:48:22.168Z,52.00
2018-12-11T18:50:50.404Z,52.16
2018-12-11T18:53:18.567Z,51.71
2018-12-11T18:55:46.722Z,52.02
2018-12-11T18:58:14.917Z,51.84
2018-12-11T19:00:43.205Z,51.99
2018-12-11T19:03:11.515Z,51.43
2018-12-11T19:05:39.781Z,52.01
2018-12-11T19:08:07.924Z,51.71
2018-12-11T19:10:36.105Z,51.13
2018-12-11T19:13:04.333Z,51.23
2018-12-11T19:15:32.568Z,51.88
2018-12-11T19:18:00.717Z,52.15
2018-12-11T19:20:28.900Z,52.37
2018-12-11T19:23:05.788Z,52.46
2018-12-11T19:25:34.073Z,52.03
2018-12-11T19:28:02.349Z,52.54
2018-12-11T19:30:30.516Z,51.88
2018-12-11T19:32:58.720Z,52.09
2018-12-11T19:35:32.844Z,52.73
2018-12-11T19:37:57.069Z,52.89
2018-12-11T19:40:25.300Z,52.43
2018-12-11T19:42:53.440Z,53.04
2018-12-11T19:45:21.645Z,52.36
2018-12-11T19:47:49.789Z,52.77
2018-12-11T19:50:17.967Z,53.41
2018-12-11T19:52:46.152Z,52.89
2018-12-11T19:55:14.304Z,53.00
2018-12-11T19:57:42.509Z,52.97
2018-12-11T20:00:10.746Z,53.37
2018-12-11T20:02:38.931Z,53.06
2018-12-11T20:05:07.544Z,53.41
2018-12-11T20:07:36.366Z,53.20
2018-12-11T20:10:10.373Z,53.25
2018-12-11T20:12:38.512Z,53.31
2018-12-11T20:15:07.082Z,53.50
2018-12-11T20:17:35.256Z,53.15
2018-12-11T20:20:03.627Z,53.54
2018-12-11T20:22:31.808Z,53.45
2018-12-11T20:25:00.160Z,53.21
2018-12-11T20:27:28.318Z,53.39
2018-12-11T20:29:56.528Z,53.72
2018-12-11T20:32:24.672Z,53.19
2018-12-11T20:34:52.884Z,53.34
2018-12-11T20:37:21.152Z,53.24
2018-12-11T20:39:49.616Z,52.67
2018-12-11T20:42:17.765Z,53.08
2018-12-11T20:44:45.907Z,53.13
2018-12-11T20:47:14.173Z,53.42
2018-12-11T20:49:42.324Z,53.75
2018-12-11T20:52:10.639Z,53.06
2018-12-11T20:54:38.896Z,53.59
2018-12-11T20:57:07.072Z,53.28
2018-12-11T20:59:35.217Z,53.05
2018-12-11T21:02:03.443Z,53.71
2018-12-11T21:04:31.696Z,53.45
2018-12-11T21:06:59.876Z,54.17
2018-12-11T21:09:28.013Z,53.68
2018-12-11T21:11:56.326Z,54.28
2018-12-11T21:14:24.461Z,53.88
2018-12-11T21:16:52.696Z,54.53
2018-12-11T21:19:20.847Z,54.05
2018-12-11T21:21:48.997Z,54.12
2018-12-11T21:24:17.480Z,54.57
2018-12-11T21:26:45.701Z,54.21
2018-12-11T21:29:14.233Z,54.47
2018-12-11T21:31:42.553Z,54.33
2018-12-11T21:34:10.726Z,54.15
2018-12-11T21:36:38.924Z,54.31
2018-12-11T21:39:08.141Z,54.45
2018-12-11T21:41:36.278Z,55.09
2018-12-11T21:44:04.552Z,54.99
2018-12-11T21:46:32.813Z,55.25
2018-12-11T21:49:01.100Z,54.70
2018-12-11T21:51:29.264Z,54.78
2018-12-11T21:53:57.408Z,54.75
2018-12-11T21:56:25.664Z,55.29
2018-12-11T21:58:53.820Z,54.55
2018-12-11T22:01:21.961Z,55.00
2018-12-11T22:03:50.372Z,54.66
2018-12-11T22:06:18.822Z,54.59
2018-12-11T22:08:47.012Z,54.60
2018-12-11T22:11:15.176Z,54.88
2018-12-11T22:13:43.464Z,54.98
2018-12-11T22:16:11.672Z,54.41
2018-12-11T22:18:39.827Z,54.96
2018-12-11T22:21:08.056Z,55.06
2018-12-11T22:23:36.207Z,55.01
2018-12-11T22:26:04.348Z,55.11
2018-12-11T22:28:32.508Z,55.11
2018-12-11T22:31:00.660Z,55.25
2018-12-11T22:33:28.896Z,55.22
2018-12-11T22:35:57.048Z,55.17
2018-12-11T22:38:25.195Z,55.18
2018-12-11T22:40:53.396Z,55.06
2018-12-11T22:43:21.661Z,55.43
2018-12-11T22:45:49.840Z,55.33
2018-12-11T22:48:17.985Z,54.97
2018-12-11T22:50:46.328Z,55.58
2018-12-11T22:53:14.557Z,55.05
2018-12-11T22:55:42.704Z,55.71
2018-12-11T22:58:10.908Z,55.23
2018-12-11T23:00:39.520Z,55.65
2018-12-11T23:03:07.894Z,55.62
2018-12-11T23:05:36.060Z,55.17
2018-12-11T23:08:04.336Z,55.69
2018-12-11T23:10:32.549Z,55.20
2018-12-11T23:13:00.684Z,55.13
2018-12-11T23:15:28.840Z,54.96
2018-12-11T23:17:57.156Z,54.90
2018-12-11T23:20:25.352Z,54.90
2018-12-11T23:22:53.500Z,54.88
2018-12-11T23:25:21.705Z,55.20
2018-12-11T23:27:49.848Z,55.31
2018-12-11T23:30:18.095Z,54.62
2018-12-11T23:32:46.276Z,55.08
2018-12-11T23:35:15.165Z,54.83
2018-12-11T23:37:43.356Z,55.26
2018-12-11T23:40:11.533Z,55.30
2018-12-11T23:42:39.693Z,55.83
2018-12-11T23:45:08.629Z,55.53
2018-12-11T23:47:37.065Z,55.97
2018-12-11T23:50:05.798Z,55.59
2018-12-11T23:52:33.952Z,55.66
2018-12-11T23:55:02.104Z,55.91
2018-12-11T23:57:30.329Z,56.28
2018-12-11T23:59:58.476Z,56.21
